createdAt,value
2018-01-07T00:00:15.520Z,93.26
2018-01-07T00:00:56.080Z,93.26
2018-01-07T00:01:36.617Z,93.17
2018-01-07T00:02:17.168Z,92.79
2018-01-07T00:02:57.718Z,93.36
2018-01-07T00:03:38.427Z,93.17
2018-01-07T00:04:18.972Z,93.26
2018-01-07T00:04:59.947Z,92.79
2018-01-07T00:05:40.459Z,93.46
2018-01-07T00:06:21.262Z,93.65
2018-01-07T00:07:02.667Z,93.26
2018-01-07T00:07:43.191Z,93.26
2018-01-07T00:08:23.751Z,93.84
2018-01-07T00:09:04.259Z,93.74
2018-01-07T00:09:44.916Z,93.65
2018-01-07T00:10:25.554Z,93.55
2018-01-07T00:11:06.122Z,93.55
2018-01-07T00:11:46.828Z,93.26
2018-01-07T00:12:27.403Z,93.36
2018-01-07T00:13:07.996Z,93.36
2018-01-07T00:13:48.590Z,93.84
2018-01-07T00:14:29.072Z,93.65
2018-01-07T00:15:09.695Z,93.74
2018-01-07T00:15:50.161Z,93.36
2018-01-07T00:16:30.682Z,92.88
2018-01-07T00:17:11.239Z,92.79
2018-01-07T00:17:51.749Z,93.17
2018-01-07T00:18:32.808Z,92.97
2018-01-07T00:19:13.458Z,92.97
2018-01-07T00:19:54.061Z,93.26
2018-01-07T00:20:34.689Z,93.07
2018-01-07T00:21:15.279Z,92.6
2018-01-07T00:21:55.806Z,93.07
2018-01-07T00:22:36.308Z,93.26
2018-01-07T00:23:16.946Z,92.97
2018-01-07T00:23:57.497Z,92.69
2018-01-07T00:24:38.017Z,93.46
2018-01-07T00:25:18.506Z,93.17
2018-01-07T00:25:59.180Z,93.26
2018-01-07T00:26:39.710Z,93.36
2018-01-07T00:27:20.234Z,93.22
2018-01-07T00:28:00.766Z,93.26
2018-01-07T00:28:41.283Z,93.46
2018-01-07T00:29:21.824Z,93.36
2018-01-07T00:30:02.494Z,93.65
2018-01-07T00:30:42.958Z,93.26
2018-01-07T00:31:23.482Z,93.17
2018-01-07T00:32:04.054Z,93.22
2018-01-07T00:32:44.745Z,92.97
2018-01-07T00:33:25.301Z,93.36
2018-01-07T00:34:05.994Z,92.79
2018-01-07T00:34:46.457Z,93.26
2018-01-07T00:35:27.099Z,93.26
2018-01-07T00:36:07.557Z,93.26
2018-01-07T00:36:48.066Z,93.65
2018-01-07T00:37:28.644Z,92.97
2018-01-07T00:38:09.152Z,92.88
2018-01-07T00:38:49.682Z,92.69
2018-01-07T00:39:30.177Z,93.26
2018-01-07T00:40:10.741Z,93.07
2018-01-07T00:40:51.266Z,92.97
2018-01-07T00:41:31.893Z,92.88
2018-01-07T00:42:12.420Z,92.69
2018-01-07T00:42:52.959Z,92.41
2018-01-07T00:43:33.490Z,92.5
2018-01-07T00:44:14.019Z,92.88
2018-01-07T00:44:54.538Z,92.31
2018-01-07T00:45:35.122Z,91.83
2018-01-07T00:46:15.646Z,91.93
2018-01-07T00:46:56.206Z,91.93
2018-01-07T00:47:36.728Z,92.12
2018-01-07T00:48:17.271Z,92.41
2018-01-07T00:48:57.797Z,92.5
2018-01-07T00:49:38.314Z,92.97
2018-01-07T00:50:18.798Z,91.93
2018-01-07T00:50:59.362Z,92.46
2018-01-07T00:51:39.933Z,93.31
2018-01-07T00:52:20.466Z,93.36
2018-01-07T00:53:00.969Z,93.51
2018-01-07T00:53:41.500Z,93.31
2018-01-07T00:54:22.044Z,93.7
2018-01-07T00:55:02.561Z,93.51
2018-01-07T00:55:43.167Z,93.41
2018-01-07T00:56:23.755Z,93.46
2018-01-07T00:57:04.286Z,93.65
2018-01-07T00:57:44.809Z,93.55
2018-01-07T00:58:25.354Z,93.79
2018-01-07T00:59:05.892Z,93.51
2018-01-07T00:59:46.411Z,93.36
2018-01-07T01:00:26.965Z,93.22
2018-01-07T01:01:07.516Z,93.31
2018-01-07T01:01:48.108Z,93.12
2018-01-07T01:02:28.634Z,93.7
2018-01-07T01:03:09.196Z,93.51
2018-01-07T01:03:49.698Z,93.51
2018-01-07T01:04:30.232Z,93.22
2018-01-07T01:05:10.757Z,93.6
2018-01-07T01:05:51.318Z,93.6
2018-01-07T01:06:31.858Z,93.31
2018-01-07T01:07:12.432Z,93.31
2018-01-07T01:07:52.972Z,93.6
2018-01-07T01:08:33.512Z,93.55
2018-01-07T01:09:14.059Z,93.51
2018-01-07T01:09:54.632Z,93.6
2018-01-07T01:10:35.179Z,93.51
2018-01-07T01:11:15.735Z,93.51
2018-01-07T01:11:56.280Z,93.46
2018-01-07T01:12:36.840Z,94.03
2018-01-07T01:13:17.390Z,93.36
2018-01-07T01:13:57.957Z,93.65
2018-01-07T01:14:38.521Z,93.36
2018-01-07T01:15:19.086Z,93.55
2018-01-07T01:15:59.659Z,93.26
2018-01-07T01:16:40.186Z,93.26
2018-01-07T01:17:20.720Z,93.36
2018-01-07T01:18:01.249Z,93.36
2018-01-07T01:18:41.797Z,93.36
2018-01-07T01:19:22.289Z,93.36
2018-01-07T01:20:02.849Z,93.17
2018-01-07T01:20:43.405Z,93.79
2018-01-07T01:21:23.929Z,93.6
2018-01-07T01:22:04.496Z,93.55
2018-01-07T01:22:45.050Z,93.79
2018-01-07T01:23:25.583Z,93.31
2018-01-07T01:24:06.121Z,93.7
2018-01-07T01:24:46.677Z,93.22
2018-01-07T01:25:27.183Z,93.6
2018-01-07T01:26:07.747Z,93.98
2018-01-07T01:26:48.310Z,93.41
2018-01-07T01:27:28.832Z,94.17
2018-01-07T01:28:09.384Z,93.98
2018-01-07T01:28:49.928Z,94.07
2018-01-07T01:29:30.483Z,93.88
2018-01-07T01:30:11.109Z,93.51
2018-01-07T01:30:51.606Z,93.31
2018-01-07T01:31:32.152Z,93.6
2018-01-07T01:32:12.676Z,93.6
2018-01-07T01:32:53.210Z,93.41
2018-01-07T01:33:33.743Z,93.6
2018-01-07T01:34:14.308Z,93.98
2018-01-07T01:34:54.805Z,93.51
2018-01-07T01:35:35.355Z,94.07
2018-01-07T01:36:15.898Z,93.88
2018-01-07T01:36:56.476Z,94.27
2018-01-07T01:37:37.027Z,93.6
2018-01-07T01:38:17.595Z,94.27
2018-01-07T01:38:58.120Z,94.07
2018-01-07T01:39:38.653Z,93.7
2018-01-07T01:40:19.180Z,93.31
2018-01-07T01:40:59.712Z,93.41
2018-01-07T01:41:40.241Z,93.7
2018-01-07T01:42:20.813Z,93.88
2018-01-07T01:43:01.312Z,93.6
2018-01-07T01:43:41.845Z,93.6
2018-01-07T01:44:22.348Z,93.7
2018-01-07T01:45:02.892Z,93.6
2018-01-07T01:45:43.477Z,93.98
2018-01-07T01:46:24.005Z,93.31
2018-01-07T01:47:04.512Z,93.31
2018-01-07T01:47:45.058Z,93.41
2018-01-07T01:48:25.589Z,93.51
2018-01-07T01:49:06.140Z,93.41
2018-01-07T01:49:46.750Z,93.41
2018-01-07T01:50:27.274Z,94.17
2018-01-07T01:51:07.785Z,93.79
2018-01-07T01:51:48.329Z,94.17
2018-01-07T01:52:28.921Z,93.98
2018-01-07T01:53:09.440Z,94.07
2018-01-07T01:53:49.941Z,94.07
2018-01-07T01:54:30.522Z,94.56
2018-01-07T01:55:11.117Z,94.93
2018-01-07T01:55:51.609Z,95.12
2018-01-07T01:56:32.116Z,94.17
2018-01-07T01:57:12.639Z,94.27
2018-01-07T01:57:53.194Z,94.27
2018-01-07T01:58:33.738Z,94.07
2018-01-07T01:59:14.246Z,94.17
2018-01-07T01:59:54.789Z,94.07
2018-01-07T02:00:35.309Z,94.07
2018-01-07T02:01:15.842Z,94.07
2018-01-07T02:01:56.418Z,93.98
2018-01-07T02:02:36.930Z,93.6
2018-01-07T02:03:17.475Z,93.7
2018-01-07T02:03:58.021Z,93.31
2018-01-07T02:04:38.594Z,94.07
2018-01-07T02:05:19.090Z,93.88
2018-01-07T02:05:59.586Z,94.07
2018-01-07T02:06:40.147Z,94.17
2018-01-07T02:07:20.666Z,94.07
2018-01-07T02:08:01.191Z,94.17
2018-01-07T02:08:41.710Z,93.88
2018-01-07T02:09:22.287Z,94.74
2018-01-07T02:10:02.800Z,94.27
2018-01-07T02:10:43.309Z,94.56
2018-01-07T02:11:23.869Z,93.98
2018-01-07T02:12:04.418Z,94.46
2018-01-07T02:12:44.975Z,94.56
2018-01-07T02:13:25.549Z,94.46
2018-01-07T02:14:06.092Z,94.36
2018-01-07T02:14:46.613Z,94.65
2018-01-07T02:15:27.166Z,94.56
2018-01-07T02:16:07.712Z,94.56
2018-01-07T02:16:48.259Z,94.27
2018-01-07T02:17:28.798Z,94.93
2018-01-07T02:18:09.343Z,95.03
2018-01-07T02:18:49.887Z,94.27
2018-01-07T02:19:30.420Z,94.46
2018-01-07T02:20:10.946Z,94.65
2018-01-07T02:20:51.516Z,94.27
2018-01-07T02:21:32.044Z,94.84
2018-01-07T02:22:12.615Z,94.84
2018-01-07T02:22:53.159Z,94.36
2018-01-07T02:23:33.679Z,94.56
2018-01-07T02:24:14.227Z,94.07
2018-01-07T02:24:54.773Z,94.17
2018-01-07T02:25:35.329Z,93.98
2018-01-07T02:26:15.817Z,94.07
2018-01-07T02:26:56.403Z,94.07
2018-01-07T02:27:36.877Z,93.98
2018-01-07T02:28:17.422Z,94.07
2018-01-07T02:28:57.980Z,93.31
2018-01-07T02:29:38.558Z,93.51
2018-01-07T02:30:19.106Z,93.41
2018-01-07T02:30:59.623Z,93.31
2018-01-07T02:31:40.194Z,93.31
2018-01-07T02:32:20.745Z,93.51
2018-01-07T02:33:01.315Z,93.41
2018-01-07T02:33:41.836Z,93.6
2018-01-07T02:34:22.377Z,93.41
2018-01-07T02:35:02.904Z,93.6
2018-01-07T02:35:43.430Z,93.41
2018-01-07T02:36:23.989Z,93.51
2018-01-07T02:37:04.546Z,93.41
2018-01-07T02:37:45.119Z,93.51
2018-01-07T02:38:25.683Z,93.7
2018-01-07T02:39:06.234Z,93.41
2018-01-07T02:39:46.785Z,93.27
2018-01-07T02:40:27.327Z,93.51
2018-01-07T02:41:07.897Z,93.98
2018-01-07T02:41:48.433Z,93.7
2018-01-07T02:42:28.973Z,93.79
2018-01-07T02:43:09.518Z,93.65
2018-01-07T02:43:50.053Z,93.27
2018-01-07T02:44:30.607Z,93.7
2018-01-07T02:45:11.173Z,93.79
2018-01-07T02:45:51.705Z,93.12
2018-01-07T02:46:32.265Z,92.55
2018-01-07T02:47:12.819Z,92.93
2018-01-07T02:47:53.383Z,93.02
2018-01-07T02:48:33.936Z,92.93
2018-01-07T02:49:14.489Z,93.22
2018-01-07T02:49:55.056Z,93.02
2018-01-07T02:50:35.610Z,92.74
2018-01-07T02:51:16.163Z,92.74
2018-01-07T02:51:56.718Z,92.55
2018-01-07T02:52:37.285Z,92.26
2018-01-07T02:53:17.814Z,92.26
2018-01-07T02:53:58.337Z,92.65
2018-01-07T02:54:38.917Z,92.65
2018-01-07T02:55:19.458Z,92.17
2018-01-07T02:56:00.043Z,92.55
2018-01-07T02:56:40.582Z,92.65
2018-01-07T02:57:21.156Z,92.55
2018-01-07T02:58:01.684Z,92.55
2018-01-07T02:58:42.246Z,92.65
2018-01-07T02:59:22.799Z,92.65
2018-01-07T03:00:03.330Z,92.93
2018-01-07T03:00:43.877Z,92.07
2018-01-07T03:01:24.442Z,92.17
2018-01-07T03:02:04.995Z,92.36
2018-01-07T03:02:46.028Z,92.07
2018-01-07T03:03:26.084Z,92.36
2018-01-07T03:04:06.633Z,91.98
2018-01-07T03:04:47.194Z,91.88
2018-01-07T03:05:27.766Z,91.88
2018-01-07T03:06:08.301Z,92.03
2018-01-07T03:06:48.832Z,92.22
2018-01-07T03:07:29.389Z,92.07
2018-01-07T03:08:09.951Z,91.74
2018-01-07T03:08:50.486Z,91.74
2018-01-07T03:09:31.080Z,92.03
2018-01-07T03:10:11.603Z,92.88
2018-01-07T03:10:52.146Z,92.6
2018-01-07T03:11:32.692Z,92.5
2018-01-07T03:12:13.256Z,92.41
2018-01-07T03:12:53.780Z,92.32
2018-01-07T03:13:34.351Z,92.41
2018-01-07T03:14:14.958Z,92.88
2018-01-07T03:14:55.495Z,91.93
2018-01-07T03:15:36.013Z,92.03
2018-01-07T03:16:16.549Z,92.03
2018-01-07T03:16:57.092Z,92.22
2018-01-07T03:17:37.628Z,91.93
2018-01-07T03:18:18.170Z,92.12
2018-01-07T03:18:58.729Z,92.5
2018-01-07T03:19:39.238Z,92.41
2018-01-07T03:20:19.787Z,92.6
2018-01-07T03:21:00.404Z,92.5
2018-01-07T03:21:40.932Z,92.12
2018-01-07T03:22:21.465Z,91.93
2018-01-07T03:23:01.996Z,92.22
2018-01-07T03:23:42.562Z,92.03
2018-01-07T03:24:23.118Z,92.12
2018-01-07T03:25:03.673Z,92.12
2018-01-07T03:25:44.243Z,91.93
2018-01-07T03:26:24.747Z,92.03
2018-01-07T03:27:05.313Z,92.12
2018-01-07T03:27:45.861Z,92.22
2018-01-07T03:28:26.409Z,92.03
2018-01-07T03:29:06.989Z,91.93
2018-01-07T03:29:47.500Z,91.64
2018-01-07T03:30:28.085Z,91.83
2018-01-07T03:31:08.656Z,91.83
2018-01-07T03:31:49.230Z,91.64
2018-01-07T03:32:29.754Z,91.17
2018-01-07T03:33:10.307Z,91.17
2018-01-07T03:33:50.820Z,92.03
2018-01-07T03:34:31.363Z,91.27
2018-01-07T03:35:11.916Z,91.46
2018-01-07T03:35:52.483Z,91.36
2018-01-07T03:36:33.021Z,91.36
2018-01-07T03:37:13.580Z,91.78
2018-01-07T03:37:54.122Z,90.93
2018-01-07T03:38:34.688Z,91.12
2018-01-07T03:39:15.222Z,91.64
2018-01-07T03:39:55.754Z,91.83
2018-01-07T03:40:36.267Z,92.22
2018-01-07T03:41:16.796Z,92.03
2018-01-07T03:41:57.345Z,91.55
2018-01-07T03:42:37.907Z,91.64
2018-01-07T03:43:18.453Z,91.36
2018-01-07T03:43:59.030Z,91.27
2018-01-07T03:44:39.524Z,91.46
2018-01-07T03:45:20.076Z,90.79
2018-01-07T03:46:00.656Z,90.59
2018-01-07T03:46:41.178Z,91.55
2018-01-07T03:47:21.721Z,91.55
2018-01-07T03:48:02.247Z,91.93
2018-01-07T03:48:42.771Z,92.03
2018-01-07T03:49:23.311Z,91.74
2018-01-07T03:50:03.848Z,91.74
2018-01-07T03:50:44.406Z,91.27
2018-01-07T03:51:25.032Z,91.36
2018-01-07T03:52:05.563Z,91.46
2018-01-07T03:52:46.114Z,91.36
2018-01-07T03:53:26.673Z,91.46
2018-01-07T03:54:07.230Z,91.55
2018-01-07T03:54:47.808Z,91.17
2018-01-07T03:55:28.356Z,91.74
2018-01-07T03:56:08.868Z,91.93
2018-01-07T03:56:49.438Z,91.93
2018-01-07T03:57:29.967Z,91.83
2018-01-07T03:58:10.532Z,91.27
2018-01-07T03:58:51.072Z,91.83
2018-01-07T03:59:31.631Z,91.64
2018-01-07T04:00:12.203Z,92.03
2018-01-07T04:02:25.480Z,91.83
2018-01-07T04:03:06.016Z,92.27
2018-01-07T04:03:46.543Z,92.12
2018-01-07T04:04:27.073Z,91.88
2018-01-07T04:05:07.591Z,92.84
2018-01-07T04:05:48.153Z,92.27
2018-01-07T04:06:28.671Z,92.17
2018-01-07T04:07:09.238Z,93.12
2018-01-07T04:07:49.762Z,92.84
2018-01-07T04:08:30.292Z,93.12
2018-01-07T04:09:10.833Z,93.6
2018-01-07T04:09:51.379Z,93.41
2018-01-07T04:10:31.950Z,93.03
2018-01-07T04:11:12.523Z,93.22
2018-01-07T04:11:53.072Z,92.46
2018-01-07T04:12:33.589Z,92.55
2018-01-07T04:13:14.101Z,91.79
2018-01-07T04:13:54.640Z,91.98
2018-01-07T04:14:35.193Z,91.98
2018-01-07T04:15:15.730Z,92.55
2018-01-07T04:15:56.259Z,93.12
2018-01-07T04:16:37.320Z,92.65
2018-01-07T04:17:17.890Z,92.55
2018-01-07T04:17:58.438Z,92.17
2018-01-07T04:18:38.978Z,92.32
2018-01-07T04:19:19.520Z,91.93
2018-01-07T04:20:00.071Z,91.69
2018-01-07T04:20:40.629Z,91.6
2018-01-07T04:21:21.171Z,91.79
2018-01-07T04:22:01.716Z,91.88
2018-01-07T04:22:42.274Z,92.55
2018-01-07T04:23:22.797Z,92.36
2018-01-07T04:24:03.317Z,92.27
2018-01-07T04:24:43.834Z,92.08
2018-01-07T04:25:24.378Z,91.79
2018-01-07T04:26:04.888Z,92.22
2018-01-07T04:26:45.433Z,92.12
2018-01-07T04:27:25.962Z,91.93
2018-01-07T04:28:06.466Z,91.79
2018-01-07T04:28:47.011Z,91.88
2018-01-07T04:29:27.584Z,91.69
2018-01-07T04:30:08.124Z,91.69
2018-01-07T04:30:48.675Z,91.83
2018-01-07T04:31:29.212Z,91.79
2018-01-07T04:32:09.731Z,91.22
2018-01-07T04:32:50.263Z,91.27
2018-01-07T04:33:30.796Z,91.5
2018-01-07T04:34:11.326Z,92.27
2018-01-07T04:34:51.873Z,91.69
2018-01-07T04:35:32.492Z,91.88
2018-01-07T04:36:12.990Z,92.17
2018-01-07T04:36:53.558Z,91.6
2018-01-07T04:37:34.067Z,92.22
2018-01-07T04:38:14.638Z,91.83
2018-01-07T04:38:55.208Z,91.79
2018-01-07T04:39:35.760Z,91.69
2018-01-07T04:40:16.258Z,92.08
2018-01-07T04:40:56.780Z,91.83
2018-01-07T04:41:37.298Z,91.74
2018-01-07T04:42:17.837Z,91.27
2018-01-07T04:42:58.365Z,91.46
2018-01-07T04:43:38.930Z,91.46
2018-01-07T04:44:19.459Z,90.69
2018-01-07T04:44:59.992Z,91.07
2018-01-07T04:45:40.529Z,91.07
2018-01-07T04:46:21.046Z,90.69
2018-01-07T04:47:01.605Z,90.88
2018-01-07T04:47:42.141Z,90.69
2018-01-07T04:48:22.680Z,91.17
2018-01-07T04:49:03.225Z,91.07
2018-01-07T04:49:43.796Z,90.79
2018-01-07T04:50:24.358Z,91.46
2018-01-07T04:51:04.895Z,91.27
2018-01-07T04:51:45.500Z,91.17
2018-01-07T04:52:25.996Z,91.74
2018-01-07T04:53:06.534Z,91.83
2018-01-07T04:53:47.946Z,91.36
2018-01-07T04:54:28.476Z,91.46
2018-01-07T04:55:09.078Z,91.64
2018-01-07T04:57:02.177Z,91.83
2018-01-07T04:57:42.748Z,91.64
2018-01-07T04:58:23.297Z,91.46
2018-01-07T04:59:03.853Z,91.41
2018-01-07T04:59:44.398Z,91.98
2018-01-07T05:00:24.926Z,92.55
2018-01-07T05:01:05.473Z,92.12
2018-01-07T05:01:46.037Z,91.83
2018-01-07T05:02:26.568Z,91.93
2018-01-07T05:03:07.127Z,92.03
2018-01-07T05:03:47.677Z,92.03
2018-01-07T05:04:28.206Z,91.74
2018-01-07T05:05:08.791Z,91.83
2018-01-07T05:05:49.331Z,92.03
2018-01-07T05:06:29.938Z,91.74
2018-01-07T05:07:10.481Z,91.74
2018-01-07T05:07:51.052Z,91.74
2018-01-07T05:08:31.594Z,92.22
2018-01-07T05:09:12.159Z,91.93
2018-01-07T05:09:52.698Z,92.03
2018-01-07T05:10:33.263Z,91.93
2018-01-07T05:11:13.830Z,91.74
2018-01-07T05:11:54.363Z,91.27
2018-01-07T05:12:34.895Z,91.88
2018-01-07T05:13:15.436Z,92.03
2018-01-07T05:13:56.005Z,92.03
2018-01-07T05:14:36.546Z,92.03
2018-01-07T05:15:17.106Z,92.32
2018-01-07T05:15:57.672Z,91.93
2018-01-07T05:16:38.225Z,92.27
2018-01-07T05:17:18.781Z,92.27
2018-01-07T05:17:59.350Z,92.36
2018-01-07T05:18:39.928Z,92.36
2018-01-07T05:19:20.456Z,92.46
2018-01-07T05:20:01.024Z,92.79
2018-01-07T05:20:41.584Z,92.55
2018-01-07T05:21:22.112Z,92.6
2018-01-07T05:22:02.673Z,92.6
2018-01-07T05:22:43.277Z,92.12
2018-01-07T05:23:23.767Z,92.22
2018-01-07T05:24:04.290Z,92.03
2018-01-07T05:24:44.848Z,92.12
2018-01-07T05:25:25.413Z,91.83
2018-01-07T05:26:05.949Z,92.12
2018-01-07T05:26:46.504Z,92.22
2018-01-07T05:27:27.061Z,91.88
2018-01-07T05:28:07.603Z,92.65
2018-01-07T05:28:48.125Z,92.65
2018-01-07T05:29:28.669Z,92.6
2018-01-07T05:30:09.233Z,92.5
2018-01-07T05:30:49.792Z,92.6
2018-01-07T05:31:30.319Z,92.6
2018-01-07T05:32:10.890Z,92.5
2018-01-07T05:32:51.438Z,92.69
2018-01-07T05:33:31.992Z,92.6
2018-01-07T05:34:12.553Z,92.32
2018-01-07T05:34:53.132Z,92.22
2018-01-07T05:35:33.685Z,92.12
2018-01-07T05:36:14.233Z,92.03
2018-01-07T05:36:54.753Z,92.03
2018-01-07T05:37:35.310Z,91.74
2018-01-07T05:38:15.850Z,91.83
2018-01-07T05:38:56.419Z,92.03
2018-01-07T05:39:36.971Z,92.03
2018-01-07T05:40:17.552Z,91.83
2018-01-07T05:40:58.083Z,91.93
2018-01-07T05:41:38.630Z,92.88
2018-01-07T05:42:19.200Z,92.5
2018-01-07T05:42:59.736Z,92.79
2018-01-07T05:43:40.300Z,92.5
2018-01-07T05:44:20.850Z,92.22
2018-01-07T05:45:01.388Z,92.41
2018-01-07T05:45:41.941Z,92.69
2018-01-07T05:46:22.511Z,92.41
2018-01-07T05:47:03.066Z,92.79
2018-01-07T05:47:43.611Z,92.32
2018-01-07T05:48:24.166Z,91.93
2018-01-07T05:49:04.702Z,91.74
2018-01-07T05:49:45.267Z,92.03
2018-01-07T05:50:25.822Z,92.03
2018-01-07T05:51:06.358Z,91.93
2018-01-07T05:51:46.925Z,91.64
2018-01-07T05:52:27.441Z,92.22
2018-01-07T05:53:07.986Z,92.32
2018-01-07T05:53:48.518Z,92.22
2018-01-07T05:54:29.079Z,91.64
2018-01-07T05:55:09.611Z,92.22
2018-01-07T05:55:50.182Z,92.22
2018-01-07T05:56:30.724Z,91.74
2018-01-07T05:57:11.275Z,92.03
2018-01-07T05:57:51.787Z,92.12
2018-01-07T05:58:32.327Z,92.22
2018-01-07T05:59:12.872Z,92.69
2018-01-07T05:59:53.415Z,92.32
2018-01-07T06:00:33.978Z,92.5
2018-01-07T06:01:14.503Z,92.79
2018-01-07T06:01:55.052Z,92.79
2018-01-07T06:02:35.613Z,93.17
2018-01-07T06:03:16.165Z,93.84
2018-01-07T06:03:56.702Z,93.27
2018-01-07T06:04:37.260Z,92.5
2018-01-07T06:05:17.761Z,92.88
2018-01-07T06:05:58.269Z,92.98
2018-01-07T06:06:38.798Z,92.22
2018-01-07T06:07:19.343Z,92.41
2018-01-07T06:07:59.895Z,92.6
2018-01-07T06:08:40.435Z,92.6
2018-01-07T06:09:21.001Z,92.69
2018-01-07T06:10:01.511Z,91.83
2018-01-07T06:10:42.061Z,91.93
2018-01-07T06:11:22.561Z,92.41
2018-01-07T06:12:03.119Z,92.32
2018-01-07T06:12:43.678Z,92.22
2018-01-07T06:13:24.235Z,92.12
2018-01-07T06:14:04.784Z,92.12
2018-01-07T06:14:45.336Z,92.22
2018-01-07T06:15:25.866Z,92.79
2018-01-07T06:16:06.427Z,92.22
2018-01-07T06:16:46.958Z,92.6
2018-01-07T06:17:27.487Z,92.5
2018-01-07T06:18:08.060Z,92.55
2018-01-07T06:18:48.618Z,92.74
2018-01-07T06:19:29.163Z,93.12
2018-01-07T06:20:09.705Z,93.32
2018-01-07T06:20:50.231Z,93.51
2018-01-07T06:21:30.755Z,93.88
2018-01-07T06:22:11.342Z,93.22
2018-01-07T06:22:51.904Z,93.6
2018-01-07T06:23:32.448Z,93.17
2018-01-07T06:24:12.975Z,93.27
2018-01-07T06:24:53.501Z,93.08
2018-01-07T06:25:34.042Z,92.6
2018-01-07T06:26:14.563Z,92.88
2018-01-07T06:26:55.131Z,93.08
2018-01-07T06:27:35.695Z,93.12
2018-01-07T06:28:16.238Z,93.03
2018-01-07T06:28:56.754Z,93.03
2018-01-07T06:29:37.310Z,93.41
2018-01-07T06:30:17.816Z,93.41
2018-01-07T06:30:58.363Z,93.12
2018-01-07T06:31:38.929Z,93.7
2018-01-07T06:32:19.449Z,93.12
2018-01-07T06:32:59.999Z,93.32
2018-01-07T06:33:40.516Z,93.6
2018-01-07T06:34:21.060Z,93.65
2018-01-07T06:35:01.600Z,93.79
2018-01-07T06:35:42.146Z,92.84
2018-01-07T06:36:22.715Z,93.22
2018-01-07T06:37:03.240Z,92.84
2018-01-07T06:37:43.784Z,93.12
2018-01-07T06:38:24.332Z,92.84
2018-01-07T06:39:04.880Z,93.7
2018-01-07T06:39:45.425Z,93.7
2018-01-07T06:40:25.958Z,93.88
2018-01-07T06:41:06.514Z,93.41
2018-01-07T06:41:47.041Z,93.7
2018-01-07T06:42:27.563Z,93.6
2018-01-07T06:43:08.118Z,93.41
2018-01-07T06:43:48.642Z,93.22
2018-01-07T06:44:29.209Z,93.6
2018-01-07T06:45:09.758Z,93.7
2018-01-07T06:45:50.328Z,93.6
2018-01-07T06:46:30.868Z,93.51
2018-01-07T06:47:11.406Z,93.41
2018-01-07T06:47:51.933Z,93.51
2018-01-07T06:48:32.501Z,93.32
2018-01-07T06:49:13.081Z,93.41
2018-01-07T06:49:53.596Z,93.7
2018-01-07T06:50:34.156Z,93.22
2018-01-07T06:51:14.716Z,92.84
2018-01-07T06:51:55.271Z,93.17
2018-01-07T06:52:35.845Z,92.65
2018-01-07T06:53:16.354Z,92.84
2018-01-07T06:53:56.909Z,93.6
2018-01-07T06:54:37.425Z,93.6
2018-01-07T06:55:17.970Z,93.7
2018-01-07T06:55:58.505Z,93.41
2018-01-07T06:56:39.042Z,93.32
2018-01-07T06:57:19.601Z,93.88
2018-01-07T06:58:00.173Z,94.08
2018-01-07T06:58:40.700Z,94.17
2018-01-07T06:59:21.251Z,93.7
2018-01-07T07:00:01.774Z,93.22
2018-01-07T07:00:42.316Z,93.51
2018-01-07T07:01:22.887Z,93.51
2018-01-07T07:02:03.391Z,93.88
2018-01-07T07:02:43.917Z,93.22
2018-01-07T07:03:24.428Z,93.6
2018-01-07T07:04:04.968Z,93.41
2018-01-07T07:04:45.543Z,93.6
2018-01-07T07:05:26.085Z,93.51
2018-01-07T07:06:06.604Z,93.41
2018-01-07T07:06:47.134Z,93.88
2018-01-07T07:07:27.706Z,93.51
2018-01-07T07:08:08.202Z,93.51
2018-01-07T07:08:48.726Z,93.7
2018-01-07T07:09:29.243Z,93.79
2018-01-07T07:10:10.435Z,93.51
2018-01-07T07:10:51.032Z,94.03
2018-01-07T07:11:31.509Z,94.17
2018-01-07T07:12:12.049Z,94.08
2018-01-07T07:12:52.600Z,94.03
2018-01-07T07:13:33.133Z,94.08
2018-01-07T07:14:13.708Z,94.17
2018-01-07T07:14:54.193Z,93.88
2018-01-07T07:15:34.735Z,93.79
2018-01-07T07:16:15.283Z,93.22
2018-01-07T07:16:55.842Z,93.88
2018-01-07T07:17:36.388Z,93.12
2018-01-07T07:18:16.931Z,93.79
2018-01-07T07:18:57.435Z,93.6
2018-01-07T07:19:37.988Z,93.88
2018-01-07T07:20:18.507Z,93.41
2018-01-07T07:20:59.016Z,93.41
2018-01-07T07:21:39.550Z,92.84
2018-01-07T07:22:20.076Z,92.84
2018-01-07T07:23:00.625Z,93.32
2018-01-07T07:23:42.043Z,93.22
2018-01-07T07:24:22.614Z,93.79
2018-01-07T07:25:03.120Z,93.22
2018-01-07T07:25:43.652Z,92.84
2018-01-07T07:26:24.217Z,93.32
2018-01-07T07:27:04.734Z,93.12
2018-01-07T07:27:45.268Z,92.84
2018-01-07T07:28:25.824Z,92.74
2018-01-07T07:29:06.385Z,92.55
2018-01-07T07:29:46.912Z,92.55
2018-01-07T07:30:27.450Z,93.6
2018-01-07T07:31:07.995Z,93.88
2018-01-07T07:31:48.534Z,94.27
2018-01-07T07:32:29.070Z,94.17
2018-01-07T07:33:09.623Z,94.37
2018-01-07T07:33:50.181Z,93.98
2018-01-07T07:34:30.741Z,93.98
2018-01-07T07:35:11.298Z,93.88
2018-01-07T07:35:51.860Z,94.17
2018-01-07T07:36:32.387Z,94.7
2018-01-07T07:37:12.945Z,94.22
2018-01-07T07:37:53.470Z,94.7
2018-01-07T07:38:34.022Z,94.51
2018-01-07T07:39:14.567Z,94.13
2018-01-07T07:39:55.124Z,94.51
2018-01-07T07:40:35.671Z,94.7
2018-01-07T07:41:16.239Z,94.89
2018-01-07T07:41:56.794Z,93.93
2018-01-07T07:42:37.349Z,93.93
2018-01-07T07:43:17.878Z,94.89
2018-01-07T07:43:58.410Z,94.27
2018-01-07T07:44:38.937Z,94.08
2018-01-07T07:45:19.502Z,94.27
2018-01-07T07:46:00.033Z,93.22
2018-01-07T07:46:40.574Z,93.41
2018-01-07T07:47:21.123Z,93.51
2018-01-07T07:48:01.645Z,93.7
2018-01-07T07:48:42.210Z,93.51
2018-01-07T07:49:22.733Z,93.32
2018-01-07T07:50:03.315Z,93.32
2018-01-07T07:50:43.840Z,93.03
2018-01-07T07:51:24.396Z,92.84
2018-01-07T07:52:04.961Z,92.74
2018-01-07T07:52:45.564Z,92.46
2018-01-07T07:53:26.100Z,92.93
2018-01-07T07:54:06.627Z,92.55
2018-01-07T07:54:47.174Z,93.32
2018-01-07T07:55:27.721Z,93.74
2018-01-07T07:56:08.264Z,93.74
2018-01-07T07:56:48.817Z,94.08
2018-01-07T07:57:29.355Z,93.88
2018-01-07T07:58:09.960Z,93.7
2018-01-07T07:58:50.522Z,93.7
2018-01-07T07:59:31.052Z,93.51
2018-01-07T08:00:11.564Z,93.98
2018-01-07T08:00:52.149Z,93.79
2018-01-07T08:01:32.685Z,94.17
2018-01-07T08:02:13.217Z,94.37
2018-01-07T08:02:53.824Z,93.7
2018-01-07T08:03:34.442Z,93.32
2018-01-07T08:04:14.913Z,93.7
2018-01-07T08:04:55.442Z,93.41
2018-01-07T08:05:36.019Z,93.41
2018-01-07T08:06:16.560Z,93.6
2018-01-07T08:06:57.109Z,94.17
2018-01-07T08:07:37.665Z,93.7
2018-01-07T08:08:18.250Z,94.37
2018-01-07T08:08:58.797Z,93.51
2018-01-07T08:09:39.337Z,93.22
2018-01-07T08:10:19.887Z,93.03
2018-01-07T08:11:00.444Z,93.79
2018-01-07T08:11:40.956Z,93.22
2018-01-07T08:12:21.483Z,93.6
2018-01-07T08:13:02.025Z,93.7
2018-01-07T08:13:42.580Z,93.51
2018-01-07T08:14:23.153Z,93.79
2018-01-07T08:15:03.730Z,93.6
2018-01-07T08:15:44.354Z,93.41
2018-01-07T08:16:24.803Z,93.51
2018-01-07T08:17:05.398Z,93.7
2018-01-07T08:17:45.886Z,93.7
2018-01-07T08:18:26.414Z,93.51
2018-01-07T08:19:06.977Z,93.6
2018-01-07T08:19:47.534Z,93.41
2018-01-07T08:20:28.087Z,92.65
2018-01-07T08:21:08.672Z,93.03
2018-01-07T08:21:49.226Z,93.7
2018-01-07T08:22:29.784Z,93.41
2018-01-07T08:23:10.336Z,93.88
2018-01-07T08:23:50.881Z,93.22
2018-01-07T08:24:31.411Z,93.32
2018-01-07T08:25:12.013Z,93.12
2018-01-07T08:25:52.523Z,93.79
2018-01-07T08:26:33.078Z,93.79
2018-01-07T08:27:13.682Z,93.22
2018-01-07T08:27:54.181Z,93.51
2018-01-07T08:28:34.751Z,93.79
2018-01-07T08:29:15.312Z,93.22
2018-01-07T08:29:55.892Z,94.17
2018-01-07T08:30:36.422Z,94.03
2018-01-07T08:31:16.981Z,94.56
2018-01-07T08:31:57.525Z,94.6
2018-01-07T08:32:38.044Z,95.08
2018-01-07T08:33:18.593Z,94.37
2018-01-07T08:33:59.139Z,93.7
2018-01-07T08:34:39.679Z,94.17
2018-01-07T08:35:20.224Z,93.98
2018-01-07T08:36:00.777Z,93.51
2018-01-07T08:36:41.326Z,94.17
2018-01-07T08:37:21.842Z,93.98
2018-01-07T08:38:02.408Z,93.98
2018-01-07T08:38:42.955Z,93.7
2018-01-07T08:39:23.495Z,93.88
2018-01-07T08:40:04.047Z,93.6
2018-01-07T08:40:44.622Z,93.51
2018-01-07T08:41:25.120Z,93.32
2018-01-07T08:42:05.676Z,93.51
2018-01-07T08:42:46.238Z,93.6
2018-01-07T08:43:26.773Z,93.22
2018-01-07T08:44:07.329Z,93.7
2018-01-07T08:44:47.865Z,93.03
2018-01-07T08:45:28.393Z,93.22
2018-01-07T08:46:08.908Z,93.51
2018-01-07T08:46:49.483Z,93.88